createdAt,value
2018-09-03T00:00:37.502Z,70.80
2018-09-03T00:03:06.124Z,71.20
2018-09-03T00:05:34.603Z,72.30
2018-09-03T00:30:57.222Z,79.80
2018-09-03T00:33:30.917Z,78.80
2018-09-03T00:37:05.154Z,79.30
2018-09-03T00:39:38.898Z,79.80
2018-09-03T00:42:12.543Z,80.80
2018-09-03T00:44:46.364Z,82.40
2018-09-03T00:47:14.897Z,82.60
2018-09-03T00:49:43.401Z,82.60
2018-09-03T00:52:11.822Z,82.00
2018-09-03T00:54:40.393Z,80.60
2018-09-03T00:57:09.088Z,80.40
2018-09-03T00:59:37.541Z,80.20
2018-09-03T01:02:06.058Z,79.40
2018-09-03T01:04:34.519Z,79.80
2018-09-03T01:07:02.953Z,79.60
2018-09-03T01:09:31.517Z,80.10
2018-09-03T01:11:59.970Z,80.90
2018-09-03T01:14:28.417Z,80.40
2018-09-03T01:16:56.850Z,80.40
2018-09-03T01:19:25.301Z,80.70
2018-09-03T01:21:53.769Z,80.50
2018-09-03T01:24:22.298Z,81.00
2018-09-03T01:26:50.750Z,82.50
2018-09-03T01:29:19.188Z,83.10
2018-09-03T01:31:47.671Z,83.80
2018-09-03T01:34:16.218Z,84.80
2018-09-03T01:36:44.657Z,85.40
2018-09-03T01:39:13.126Z,86.30
2018-09-03T01:41:41.552Z,86.40
2018-09-03T01:44:09.983Z,86.40
2018-09-03T01:46:38.451Z,85.70
2018-09-03T01:49:06.913Z,84.20
2018-09-03T01:51:35.351Z,84.30
2018-09-03T01:54:03.821Z,83.00
2018-09-03T01:56:32.242Z,82.30
2018-09-03T01:59:00.692Z,81.90
2018-09-03T02:01:29.329Z,81.50
2018-09-03T02:03:57.773Z,81.80
2018-09-03T02:06:26.206Z,80.40
2018-09-03T02:08:54.661Z,80.50
2018-09-03T02:11:23.101Z,80.00
2018-09-03T02:13:51.590Z,80.30
2018-09-03T02:16:20.113Z,79.90
2018-09-03T02:18:48.551Z,79.30
2018-09-03T02:21:17.047Z,79.60
2018-09-03T02:23:45.545Z,79.50
2018-09-03T02:26:14.090Z,80.30
2018-09-03T02:28:43.406Z,79.80
2018-09-03T02:31:11.849Z,81.00
2018-09-03T02:33:40.298Z,79.90
2018-09-03T02:36:08.750Z,81.00
2018-09-03T02:38:37.218Z,80.60
2018-09-03T02:41:05.949Z,79.90
2018-09-03T02:44:03.034Z,81.10
2018-09-03T02:46:31.425Z,81.30
2018-09-03T02:48:59.860Z,80.30
2018-09-03T02:51:28.342Z,81.10
2018-09-03T02:53:56.773Z,81.20
2018-09-03T02:56:25.202Z,81.40
2018-09-03T02:58:53.656Z,80.80
2018-09-03T03:01:22.124Z,80.90
2018-09-03T03:03:50.573Z,80.90
2018-09-03T03:06:19.084Z,81.00
2018-09-03T03:09:04.808Z,82.00
2018-09-03T03:11:33.303Z,82.00
2018-09-03T03:14:01.767Z,82.10
2018-09-03T03:16:30.212Z,82.50
2018-09-03T03:18:58.688Z,83.80
2018-09-03T03:21:27.123Z,82.80
2018-09-03T03:23:55.582Z,83.60
2018-09-03T03:26:24.033Z,82.70
2018-09-03T03:28:52.463Z,82.70
2018-09-03T03:31:20.909Z,84.50
2018-09-03T03:33:49.427Z,82.60
2018-09-03T03:36:17.883Z,81.80
2018-09-03T03:38:46.333Z,81.40
2018-09-03T03:41:14.821Z,81.60
2018-09-03T03:43:43.297Z,81.60
2018-09-03T03:46:11.760Z,81.40
2018-09-03T03:48:40.232Z,82.50
2018-09-03T03:51:08.676Z,81.60
2018-09-03T03:53:37.106Z,82.80
2018-09-03T03:56:05.570Z,82.20
2018-09-03T03:58:34.052Z,83.10
2018-09-03T04:01:02.476Z,83.20
2018-09-03T04:03:30.943Z,83.20
2018-09-03T04:05:59.397Z,83.30
2018-09-03T04:08:27.840Z,83.30
2018-09-03T04:10:56.306Z,83.10
2018-09-03T04:13:24.790Z,83.90
2018-09-03T04:15:53.227Z,82.80
2018-09-03T04:18:21.696Z,82.20
2018-09-03T04:20:50.131Z,82.80
2018-09-03T04:23:18.773Z,82.10
2018-09-03T04:25:47.126Z,82.90
2018-09-03T04:28:15.634Z,82.70
2018-09-03T04:30:44.121Z,82.20
2018-09-03T04:33:12.640Z,81.20
2018-09-03T04:35:41.096Z,82.10
2018-09-03T04:38:09.561Z,81.60
2018-09-03T04:40:38.061Z,81.20
2018-09-03T04:43:06.503Z,80.80
2018-09-03T04:45:34.945Z,81.40
2018-09-03T04:48:03.442Z,82.30
2018-09-03T04:50:31.903Z,82.60
2018-09-03T04:53:00.469Z,81.60
2018-09-03T04:55:28.940Z,82.30
2018-09-03T04:57:57.384Z,83.00
2018-09-03T05:00:25.817Z,83.10
2018-09-03T05:02:54.276Z,83.60
2018-09-03T05:05:22.989Z,83.30
2018-09-03T05:07:51.439Z,82.90
2018-09-03T05:10:19.898Z,83.20
2018-09-03T05:12:49.762Z,82.50
2018-09-03T05:15:18.289Z,82.60
2018-09-03T05:17:46.783Z,83.30
2018-09-03T05:20:15.406Z,83.20
2018-09-03T05:22:43.827Z,83.20
2018-09-03T05:25:12.377Z,82.70
2018-09-03T05:27:40.933Z,83.90
2018-09-03T05:30:09.466Z,84.00
2018-09-03T05:32:38.332Z,84.40
2018-09-03T05:35:06.831Z,84.20
2018-09-03T05:37:35.271Z,84.40
2018-09-03T05:40:03.881Z,85.40
2018-09-03T05:42:32.316Z,84.60
2018-09-03T05:45:00.784Z,85.10
2018-09-03T05:47:29.247Z,84.50
2018-09-03T05:49:57.754Z,83.60
2018-09-03T05:52:26.178Z,84.10
2018-09-03T05:54:54.696Z,84.40
2018-09-03T05:57:23.136Z,84.60
2018-09-03T05:59:51.581Z,84.50
2018-09-03T06:02:20.043Z,84.80
2018-09-03T06:04:48.551Z,83.20
2018-09-03T06:07:16.958Z,83.60
2018-09-03T06:09:45.451Z,83.00
2018-09-03T06:12:13.926Z,82.80
2018-09-03T06:14:42.375Z,83.20
2018-09-03T06:17:10.842Z,82.50
2018-09-03T06:19:39.287Z,83.20
2018-09-03T06:22:07.734Z,82.10
2018-09-03T06:24:36.203Z,81.10
2018-09-03T06:27:04.758Z,81.60
2018-09-03T06:29:33.212Z,80.60
2018-09-03T06:32:01.950Z,80.90
2018-09-03T06:34:30.395Z,79.80
2018-09-03T06:36:59.070Z,79.00
2018-09-03T06:39:27.548Z,78.80
2018-09-03T06:41:55.989Z,78.70
2018-09-03T06:44:24.444Z,78.50
2018-09-03T06:46:52.945Z,76.70
2018-09-03T06:49:21.436Z,76.50
2018-09-03T06:51:49.904Z,76.80
2018-09-03T06:54:18.423Z,75.40
2018-09-03T06:56:46.882Z,74.20
2018-09-03T06:59:15.343Z,73.40
2018-09-03T07:01:43.915Z,70.80
2018-09-03T07:04:12.367Z,70.40
2018-09-03T07:06:40.841Z,67.60
2018-09-03T07:09:10.378Z,67.90
2018-09-03T07:11:38.932Z,66.70
2018-09-03T07:14:07.387Z,66.40
2018-09-03T07:16:35.934Z,65.40
2018-09-03T07:19:04.460Z,63.00
2018-09-03T07:21:32.922Z,65.20
2018-09-03T07:24:01.415Z,64.50
2018-09-03T07:26:29.931Z,65.20
2018-09-03T07:28:58.494Z,65.90
2018-09-03T07:31:27.004Z,64.50
2018-09-03T07:33:55.458Z,64.70
2018-09-03T07:36:23.893Z,65.30
2018-09-03T07:38:52.364Z,61.70
2018-09-03T07:41:20.906Z,61.30
2018-09-03T07:43:49.337Z,63.30
2018-09-03T07:46:18.011Z,61.80
2018-09-03T07:48:46.512Z,61.50
2018-09-03T07:51:14.960Z,61.40
2018-09-03T07:53:43.439Z,61.80
2018-09-03T07:56:11.888Z,60.90
2018-09-03T07:58:40.345Z,61.10
2018-09-03T08:01:08.957Z,60.70
2018-09-03T08:03:37.365Z,60.50
2018-09-03T08:06:06.447Z,57.00
2018-09-03T08:08:34.917Z,59.80
2018-09-03T08:11:03.458Z,57.30
2018-09-03T08:13:38.947Z,57.90
2018-09-03T08:16:07.652Z,57.10
2018-09-03T08:18:36.155Z,57.80
2018-09-03T08:21:05.033Z,56.50
2018-09-03T08:23:33.520Z,56.30
2018-09-03T08:26:02.093Z,57.80
2018-09-03T08:28:30.609Z,57.20
2018-09-03T08:30:59.333Z,54.30
2018-09-03T08:33:27.867Z,50.50
2018-09-03T08:35:56.663Z,49.60
2018-09-03T08:38:25.102Z,50.40
2018-09-03T08:40:53.668Z,49.40
2018-09-03T08:43:22.320Z,50.10
2018-09-03T08:45:50.781Z,50.60
2018-09-03T08:48:19.228Z,48.10
2018-09-03T08:50:47.697Z,49.10
2018-09-03T08:53:16.217Z,51.00
2018-09-03T08:55:44.644Z,49.70
2018-09-03T08:58:13.133Z,49.80
2018-09-03T09:00:41.629Z,47.60
2018-09-03T09:03:43.096Z,47.60
2018-09-03T09:06:12.012Z,46.20
2018-09-03T09:08:40.510Z,44.80
2018-09-03T09:11:09.605Z,44.10
2018-09-03T09:13:38.061Z,45.10
2018-09-03T09:16:06.557Z,45.80
2018-09-03T09:18:35.063Z,45.60
2018-09-03T09:21:03.492Z,44.40
2018-09-03T09:23:32.000Z,45.90
2018-09-03T09:26:00.422Z,45.20
2018-09-03T09:28:28.970Z,45.70
2018-09-03T09:30:57.458Z,48.00
2018-09-03T09:33:26.046Z,49.70
2018-09-03T09:35:54.562Z,48.80
2018-09-03T09:38:22.991Z,45.10
2018-09-03T09:40:51.699Z,43.20
2018-09-03T09:43:20.180Z,43.50
2018-09-03T09:45:48.613Z,43.50
2018-09-03T09:48:17.058Z,45.90
2018-09-03T09:50:45.531Z,45.60
2018-09-03T09:53:13.996Z,49.20
2018-09-03T09:55:42.456Z,49.00
2018-09-03T09:58:10.929Z,48.80
2018-09-03T10:01:43.530Z,48.00
2018-09-03T10:04:12.014Z,46.10
2018-09-03T10:06:40.447Z,48.50
2018-09-03T10:09:09.044Z,49.10
2018-09-03T10:11:37.507Z,51.10
2018-09-03T10:14:06.286Z,50.90
2018-09-03T10:16:34.784Z,51.60
2018-09-03T10:19:03.227Z,53.60
2018-09-03T10:21:31.718Z,54.30
2018-09-03T10:24:00.200Z,56.00
2018-09-03T10:26:28.648Z,55.50
2018-09-03T10:28:57.164Z,57.50
2018-09-03T10:31:25.953Z,56.20
2018-09-03T10:33:54.641Z,57.00
2018-09-03T10:36:23.110Z,54.70
2018-09-03T10:38:51.693Z,52.30
2018-09-03T10:41:20.151Z,49.00
2018-09-03T10:43:48.672Z,48.80
2018-09-03T10:46:17.130Z,45.50
2018-09-03T10:48:45.575Z,46.40
2018-09-03T10:51:14.009Z,47.40
2018-09-03T10:53:42.503Z,47.60
2018-09-03T10:56:11.016Z,49.00
2018-09-03T10:58:39.436Z,49.60
2018-09-03T11:01:07.933Z,48.60
2018-09-03T11:03:36.418Z,49.40
2018-09-03T11:06:05.215Z,50.90
2018-09-03T11:08:33.704Z,52.30
2018-09-03T11:11:02.230Z,50.90
2018-09-03T11:13:30.652Z,47.50
2018-09-03T11:15:59.116Z,46.50
2018-09-03T11:18:28.776Z,46.50
2018-09-03T11:20:57.330Z,44.30
2018-09-03T11:23:25.944Z,43.10
2018-09-03T11:25:54.429Z,41.10
2018-09-03T11:28:22.892Z,41.80
2018-09-03T11:30:51.418Z,39.00
2018-09-03T11:33:19.900Z,40.30
2018-09-03T11:35:48.504Z,39.60
2018-09-03T11:38:16.963Z,43.50
2018-09-03T11:40:45.430Z,45.80
2018-09-03T11:43:13.880Z,46.90
2018-09-03T11:45:42.367Z,49.30
2018-09-03T11:48:10.928Z,49.20
2018-09-03T11:50:39.371Z,46.50
2018-09-03T11:53:07.866Z,46.60
2018-09-03T11:55:36.333Z,46.60
2018-09-03T11:58:04.886Z,48.80
2018-09-03T12:00:33.501Z,45.50
2018-09-03T12:03:01.939Z,41.70
2018-09-03T12:05:30.402Z,38.90
2018-09-03T12:07:58.916Z,38.40
2018-09-03T12:10:27.384Z,39.80
2018-09-03T12:12:55.846Z,39.30
2018-09-03T12:15:39.651Z,37.00
2018-09-03T12:18:08.117Z,41.60
2018-09-03T12:20:36.595Z,42.70
2018-09-03T12:23:05.495Z,44.10
2018-09-03T12:25:33.982Z,45.20
2018-09-03T12:28:02.462Z,46.60
2018-09-03T12:30:30.930Z,44.60
2018-09-03T12:32:59.404Z,47.60
2018-09-03T12:35:27.958Z,48.90
2018-09-03T12:37:56.488Z,50.70
2018-09-03T12:40:24.973Z,53.80
2018-09-03T12:42:53.467Z,56.00
2018-09-03T12:45:30.071Z,61.60
2018-09-03T12:47:58.545Z,63.50
2018-09-03T12:50:27.024Z,64.40
2018-09-03T12:52:55.619Z,64.90
2018-09-03T12:55:24.177Z,62.60
2018-09-03T12:57:52.614Z,59.00
2018-09-03T13:00:22.136Z,58.60
2018-09-03T13:02:51.149Z,56.50
2018-09-03T13:05:20.492Z,55.40
2018-09-03T13:07:49.294Z,54.90
2018-09-03T13:10:17.882Z,55.20
2018-09-03T13:12:46.689Z,55.50
2018-09-03T13:15:15.159Z,57.00
2018-09-03T13:17:43.956Z,52.80
2018-09-03T13:20:12.827Z,54.20
2018-09-03T13:22:41.646Z,54.40
2018-09-03T13:25:10.108Z,55.30
2018-09-03T13:27:38.591Z,57.30
2018-09-03T13:30:08.085Z,55.30
2018-09-03T13:32:36.530Z,50.60
2018-09-03T13:35:05.010Z,48.10
2018-09-03T13:37:33.871Z,46.50
2018-09-03T13:40:02.322Z,49.80
2018-09-03T13:42:30.863Z,52.20
2018-09-03T13:44:59.290Z,54.70
2018-09-03T13:47:27.757Z,56.30
2018-09-03T13:49:56.304Z,59.00
2018-09-03T13:52:24.845Z,58.90
2018-09-03T13:54:53.400Z,60.70
2018-09-03T13:57:21.861Z,59.10
2018-09-03T13:59:50.379Z,56.70
2018-09-03T14:02:18.861Z,55.10
2018-09-03T14:04:47.386Z,53.20
2018-09-03T14:07:15.936Z,53.20
2018-09-03T14:09:44.515Z,52.50
2018-09-03T14:12:12.951Z,53.50
2018-09-03T14:14:41.443Z,53.00
2018-09-03T14:17:09.990Z,51.80
2018-09-03T14:19:38.497Z,48.50
2018-09-03T14:22:07.095Z,46.20
2018-09-03T14:24:35.540Z,46.10
2018-09-03T14:27:04.000Z,46.10
2018-09-03T14:29:32.490Z,45.20
2018-09-03T14:32:00.959Z,46.90
2018-09-03T14:34:29.414Z,48.70
2018-09-03T14:36:57.987Z,49.60
2018-09-03T14:39:26.448Z,49.10
2018-09-03T14:41:54.907Z,50.20
2018-09-03T14:44:23.479Z,54.10
2018-09-03T14:46:52.067Z,56.20
2018-09-03T14:49:20.580Z,59.50
2018-09-03T14:51:49.123Z,64.00
2018-09-03T14:54:17.576Z,64.60
2018-09-03T14:56:46.077Z,63.50
2018-09-03T14:59:15.527Z,65.90
2018-09-03T15:01:44.007Z,66.10
2018-09-03T15:04:12.683Z,65.50
2018-09-03T15:06:41.105Z,65.90
2018-09-03T15:09:10.768Z,66.10
2018-09-03T15:11:39.242Z,64.80
2018-09-03T15:14:07.726Z,65.70
2018-09-03T15:16:36.173Z,66.90
2018-09-03T15:19:05.711Z,67.10
2018-09-03T15:21:35.239Z,68.40
2018-09-03T15:24:04.312Z,70.30
2018-09-03T15:26:32.817Z,73.40
2018-09-03T15:29:01.296Z,73.00
2018-09-03T15:31:29.756Z,73.20
2018-09-03T15:33:58.291Z,72.40
2018-09-03T15:36:27.119Z,72.80
2018-09-03T15:38:55.613Z,72.60
2018-09-03T15:41:24.179Z,73.70
2018-09-03T15:43:52.691Z,75.20
2018-09-03T15:46:21.343Z,75.20
2018-09-03T15:48:49.803Z,74.00
2018-09-03T15:51:18.331Z,73.20
2018-09-03T15:53:46.851Z,73.90
2018-09-03T15:56:15.348Z,73.50
2018-09-03T15:58:43.852Z,72.90
2018-09-03T16:01:12.316Z,74.50
2018-09-03T16:03:40.980Z,74.60
2018-09-03T16:06:09.533Z,76.90
2018-09-03T16:08:38.015Z,78.40
2018-09-03T16:11:06.470Z,78.90
2018-09-03T16:13:34.950Z,80.50
2018-09-03T16:16:03.409Z,81.60
2018-09-03T16:18:31.920Z,82.10
2018-09-03T16:21:00.550Z,82.00
2018-09-03T16:23:29.090Z,83.00
2018-09-03T16:25:57.593Z,82.30
2018-09-03T16:28:26.080Z,82.10
2018-09-03T16:30:54.635Z,83.60
2018-09-03T16:33:23.475Z,83.70
2018-09-03T16:35:52.043Z,83.20
2018-09-03T16:38:20.514Z,83.10
2018-09-03T16:40:49.098Z,83.70
2018-09-03T16:43:17.585Z,82.90
2018-09-03T16:45:46.125Z,83.00
2018-09-03T16:48:14.654Z,84.10
2018-09-03T16:50:43.159Z,84.50
2018-09-03T16:53:11.662Z,86.30
2018-09-03T16:55:40.202Z,86.80
2018-09-03T16:58:08.924Z,86.70
2018-09-03T17:00:37.384Z,86.80
2018-09-03T17:03:05.902Z,86.30
2018-09-03T17:05:34.445Z,86.10
2018-09-03T17:08:03.123Z,85.60
2018-09-03T17:10:31.553Z,86.10
2018-09-03T17:13:00.076Z,86.40
2018-09-03T17:15:28.562Z,86.10
2018-09-03T17:17:57.181Z,85.50
2018-09-03T17:20:25.947Z,86.50
2018-09-03T17:22:54.356Z,87.30
2018-09-03T17:25:22.824Z,88.00
2018-09-03T17:27:51.525Z,88.70
2018-09-03T17:30:20.071Z,89.10
2018-09-03T17:32:48.557Z,89.50
2018-09-03T17:35:17.071Z,89.20
2018-09-03T17:37:45.551Z,89.30
2018-09-03T17:40:14.075Z,90.50
2018-09-03T17:42:42.558Z,90.90
2018-09-03T17:45:11.063Z,91.10
2018-09-03T17:47:40.407Z,92.00
2018-09-03T17:50:09.150Z,92.30
2018-09-03T17:52:37.665Z,92.80
2018-09-03T17:55:06.938Z,93.10
2018-09-03T17:57:35.490Z,93.80
2018-09-03T18:00:04.015Z,94.30
2018-09-03T18:02:32.494Z,95.20
2018-09-03T18:05:01.013Z,94.50
2018-09-03T18:07:29.476Z,95.20
2018-09-03T18:09:58.006Z,95.60
2018-09-03T18:12:26.491Z,96.30
2018-09-03T18:14:55.016Z,96.10
2018-09-03T18:17:23.474Z,96.70
2018-09-03T18:19:52.037Z,97.20
2018-09-03T18:22:20.496Z,97.80
2018-09-03T18:24:48.956Z,99.30
2018-09-03T18:27:17.465Z,99.30
2018-09-03T18:29:45.916Z,99.50
2018-09-03T18:32:14.388Z,99.50
2018-09-03T18:34:42.854Z,99.80
2018-09-03T18:37:11.372Z,99.90
2018-09-03T18:39:39.855Z,99.90
2018-09-03T18:42:07.978Z,99.90
2018-09-03T18:44:36.479Z,99.90
2018-09-03T18:47:05.016Z,99.90
2018-09-03T18:49:33.546Z,99.90
2018-09-03T18:52:02.134Z,99.90
2018-09-03T18:54:30.693Z,99.90
2018-09-03T18:56:59.179Z,99.90
2018-09-03T18:59:27.778Z,99.90
2018-09-03T19:01:56.465Z,99.90
2018-09-03T19:04:25.001Z,99.90
2018-09-03T19:06:53.531Z,99.90
2018-09-03T19:09:21.976Z,99.90
2018-09-03T19:11:50.495Z,99.90
2018-09-03T19:14:19.080Z,99.90
2018-09-03T19:16:47.579Z,99.90
2018-09-03T19:19:16.208Z,99.90
2018-09-03T19:21:44.736Z,99.90
2018-09-03T19:24:13.305Z,99.90
2018-09-03T19:26:41.809Z,99.90
2018-09-03T19:29:10.570Z,99.90
2018-09-03T19:31:39.470Z,99.90
2018-09-03T19:34:07.934Z,99.90
2018-09-03T19:36:36.374Z,99.90
2018-09-03T19:39:05.939Z,99.90
2018-09-03T19:41:34.748Z,99.90
2018-09-03T19:44:03.214Z,99.90
2018-09-03T19:46:31.868Z,99.90
2018-09-03T19:49:00.356Z,99.90
2018-09-03T19:51:29.217Z,99.90
2018-09-03T19:53:57.678Z,99.90
2018-09-03T19:56:26.164Z,99.90
2018-09-03T19:58:54.612Z,99.90
2018-09-03T20:01:23.311Z,99.90
2018-09-03T20:03:51.792Z,99.90
2018-09-03T20:06:20.256Z,99.90
2018-09-03T20:08:48.774Z,99.90
2018-09-03T20:11:17.248Z,99.90
2018-09-03T20:13:45.700Z,99.90
2018-09-03T20:16:14.180Z,99.90
2018-09-03T20:18:42.658Z,99.90
2018-09-03T20:21:11.411Z,99.90
2018-09-03T20:23:40.211Z,99.90
2018-09-03T20:26:08.664Z,99.90
2018-09-03T20:28:37.279Z,99.90
2018-09-03T20:31:06.071Z,99.90
2018-09-03T20:33:34.460Z,99.90
2018-09-03T20:36:03.072Z,99.90
2018-09-03T20:38:31.553Z,99.90
2018-09-03T20:41:00.037Z,99.90
2018-09-03T20:43:28.630Z,99.90
2018-09-03T20:45:57.131Z,99.90
2018-09-03T20:48:25.650Z,99.90
2018-09-03T20:50:54.092Z,99.90
2018-09-03T20:53:22.519Z,99.90
2018-09-03T20:55:51.169Z,99.90
2018-09-03T20:58:19.662Z,99.90
2018-09-03T21:00:48.138Z,99.90
2018-09-03T21:03:16.626Z,99.90
2018-09-03T21:05:45.175Z,99.90
2018-09-03T21:08:13.757Z,99.90
2018-09-03T21:10:42.240Z,99.90
2018-09-03T21:13:10.698Z,99.90
2018-09-03T21:15:39.280Z,99.90
2018-09-03T21:18:07.754Z,99.90
2018-09-03T21:20:36.270Z,99.90
2018-09-03T21:23:04.739Z,99.90
2018-09-03T21:25:33.208Z,99.90
2018-09-03T21:28:01.634Z,99.90
2018-09-03T21:30:30.094Z,99.90
2018-09-03T21:32:58.564Z,99.90
2018-09-03T21:35:27.021Z,99.90
2018-09-03T21:37:55.548Z,99.90
2018-09-03T21:40:24.054Z,99.90
2018-09-03T21:42:52.507Z,99.90
2018-09-03T21:45:20.969Z,99.90
2018-09-03T21:47:49.475Z,99.90
2018-09-03T21:50:18.165Z,99.90
2018-09-03T21:52:46.613Z,99.90
2018-09-03T21:55:15.117Z,99.90
2018-09-03T21:57:43.607Z,99.90
2018-09-03T22:00:12.409Z,99.90
2018-09-03T22:02:40.908Z,99.90
2018-09-03T22:05:09.381Z,99.90
2018-09-03T22:07:37.838Z,99.90
2018-09-03T22:10:06.357Z,99.90
2018-09-03T22:12:34.829Z,99.90
2018-09-03T22:15:03.302Z,99.90
2018-09-03T22:17:31.800Z,99.90
2018-09-03T22:20:00.259Z,99.90
2018-09-03T22:22:28.712Z,99.90
2018-09-03T22:24:57.206Z,99.90
2018-09-03T22:27:25.675Z,99.90
2018-09-03T22:29:54.126Z,99.90
2018-09-03T22:32:22.648Z,99.90
2018-09-03T22:34:51.246Z,99.90
2018-09-03T22:37:19.699Z,99.90
2018-09-03T22:39:48.323Z,99.90
2018-09-03T22:42:16.854Z,99.90
2018-09-03T22:44:45.303Z,99.90
2018-09-03T22:47:13.776Z,99.90
2018-09-03T22:49:42.321Z,99.90
2018-09-03T22:52:10.775Z,99.90
2018-09-03T22:54:39.232Z,99.90
2018-09-03T22:57:07.726Z,99.90
2018-09-03T22:59:36.167Z,99.90
2018-09-03T23:02:04.729Z,99.90
2018-09-03T23:04:33.336Z,99.90
2018-09-03T23:07:01.895Z,99.90
2018-09-03T23:09:30.497Z,99.90
2018-09-03T23:11:59.073Z,99.90
2018-09-03T23:14:27.521Z,99.90
2018-09-03T23:16:55.985Z,99.90
2018-09-03T23:19:24.471Z,99.90
2018-09-03T23:21:52.946Z,99.90
2018-09-03T23:24:21.486Z,99.90
2018-09-03T23:26:49.941Z,99.90
2018-09-03T23:29:18.514Z,99.90
2018-09-03T23:31:46.988Z,99.90
2018-09-03T23:34:15.429Z,99.90
2018-09-03T23:36:44.012Z,99.90
2018-09-03T23:39:12.459Z,99.90
2018-09-03T23:41:41.084Z,99.90
2018-09-03T23:44:09.579Z,99.90
2018-09-03T23:46:38.074Z,99.90
2018-09-03T23:49:06.536Z,99.90
2018-09-03T23:51:34.987Z,99.90
2018-09-03T23:54:03.462Z,99.90
2018-09-03T23:56:31.913Z,99.90
2018-09-03T23:59:00.457Z,99.90
